Wetterdaten: Mittwoch, 20.06.2007
Datum Zeit Temp. A. Feuchte A. Luftdruck Regen Wind Richtung Richtung Sonnenschein UV Solar Windben
20.06.2007 00:00 18,9 C 75 % 1011,7 hPa 0,0 mm 0,0 km/h (0 Bft) O 90 0 min 0 UV-I 0 W/m 1,6 km/h (1 Bft)
20.06.2007 00:10 18,7 C 75 % 1011,6 hPa 0,0 mm 0,0 km/h (0 Bft) O 90 0 min 0 UV-I 0 W/m 1,6 km/h (1 Bft)
20.06.2007 00:20 18,6 C 75 % 1011,6 hPa 0,0 mm 0,0 km/h (0 Bft) O 90 0 min 0 UV-I 0 W/m 3,2 km/h (1 Bft)
20.06.2007 00:30 18,5 C 75 % 1011,3 hPa 0,0 mm 0,0 km/h (0 Bft) O 90 0 min 0 UV-I 0 W/m 1,6 km/h (1 Bft)
20.06.2007 00:40 18,4 C 74 % 1011,2 hPa 0,0 mm 0,0 km/h (0 Bft) O 90 0 min 0 UV-I 0 W/m 3,2 km/h (1 Bft)
20.06.2007 00:50 18,4 C 75 % 1011,2 hPa 0,0 mm 0,0 km/h (0 Bft) O 90 0 min 0 UV-I 0 W/m 3,2 km/h (1 Bft)
20.06.2007 01:00 18,3 C 75 % 1011,0 hPa 0,0 mm 1,6 km/h (1 Bft) O 90 0 min 0 UV-I 0 W/m 6,4 km/h (2 Bft)
20.06.2007 01:10 18,5 C 74 % 1011,0 hPa 0,0 mm 3,2 km/h (1 Bft) O 90 0 min 0 UV-I 0 W/m 8,0 km/h (2 Bft)
20.06.2007 01:20 18,8 C 73 % 1010,7 hPa 0,0 mm 3,2 km/h (1 Bft) O-SO 112 0 min 0 UV-I 0 W/m 8,0 km/h (2 Bft)
20.06.2007 01:30 19,1 C 71 % 1010,7 hPa 0,0 mm 4,8 km/h (1 Bft) O-SO 112 0 min 0 UV-I 0 W/m 11,3 km/h (2 Bft)
20.06.2007 01:40 19,2 C 71 % 1010,7 hPa 0,0 mm 4,8 km/h (1 Bft) O-SO 112 0 min 0 UV-I 0 W/m 11,3 km/h (2 Bft)
20.06.2007 01:50 19,3 C 70 % 1010,5 hPa 0,0 mm 4,8 km/h (1 Bft) O-SO 112 0 min 0 UV-I 0 W/m 14,5 km/h (3 Bft)
20.06.2007 02:00 19,4 C 70 % 1010,3 hPa 0,0 mm 4,8 km/h (1 Bft) O-SO 112 0 min 0 UV-I 0 W/m 14,5 km/h (3 Bft)
20.06.2007 02:10 19,4 C 70 % 1010,2 hPa 0,0 mm 3,2 km/h (1 Bft) O-SO 112 0 min 0 UV-I 0 W/m 9,7 km/h (2 Bft)
20.06.2007 02:20 19,3 C 71 % 1010,3 hPa 0,0 mm 3,2 km/h (1 Bft) O-SO 112 0 min 0 UV-I 0 W/m 8,0 km/h (2 Bft)
20.06.2007 02:30 19,3 C 71 % 1010,2 hPa 0,0 mm 4,8 km/h (1 Bft) O-SO 112 0 min 0 UV-I 0 W/m 11,3 km/h (2 Bft)
20.06.2007 02:40 19,3 C 71 % 1010,4 hPa 0,0 mm 3,2 km/h (1 Bft) O 90 0 min 0 UV-I 0 W/m 8,0 km/h (2 Bft)
20.06.2007 02:50 19,3 C 71 % 1010,4 hPa 0,0 mm 3,2 km/h (1 Bft) O-SO 112 0 min 0 UV-I 0 W/m 6,4 km/h (2 Bft)
20.06.2007 03:00 19,3 C 71 % 1010,4 hPa 0,0 mm 1,6 km/h (1 Bft) O-SO 112 0 min 0 UV-I 0 W/m 8,0 km/h (2 Bft)
20.06.2007 03:10 19,1 C 71 % 1010,4 hPa 0,0 mm 3,2 km/h (1 Bft) O-SO 112 0 min 0 UV-I 0 W/m 6,4 km/h (2 Bft)
20.06.2007 03:20 18,9 C 72 % 1010,3 hPa 0,0 mm 1,6 km/h (1 Bft) O-SO 112 0 min 0 UV-I 0 W/m 6,4 km/h (2 Bft)
20.06.2007 03:30 18,8 C 73 % 1010,3 hPa 0,0 mm 3,2 km/h (1 Bft) O-SO 112 0 min 0 UV-I 0 W/m 6,4 km/h (2 Bft)
20.06.2007 03:40 18,6 C 74 % 1010,3 hPa 0,0 mm 1,6 km/h (1 Bft) O-NO 67 0 min 0 UV-I 0 W/m 4,8 km/h (1 Bft)
20.06.2007 03:50 18,4 C 74 % 1010,2 hPa 0,0 mm 1,6 km/h (1 Bft) O 90 0 min 0 UV-I 0 W/m 4,8 km/h (1 Bft)
20.06.2007 04:00 18,4 C 74 % 1010,2 hPa 0,0 mm 0,0 km/h (0 Bft) O 90 0 min 0 UV-I 0 W/m 3,2 km/h (1 Bft)
20.06.2007 04:10 18,2 C 76 % 1010,4 hPa 0,0 mm 0,0 km/h (0 Bft) O 90 0 min 0 UV-I 0 W/m 1,6 km/h (1 Bft)
20.06.2007 04:20 17,8 C 77 % 1010,5 hPa 0,0 mm 0,0 km/h (0 Bft) N 0 0 min 0 UV-I 0 W/m 0,0 km/h (0 Bft)
20.06.2007 04:30 17,6 C 78 % 1010,5 hPa 0,0 mm 1,6 km/h (1 Bft) O 90 0 min 0 UV-I 0 W/m 4,8 km/h (1 Bft)
20.06.2007 04:40 17,5 C 77 % 1010,5 hPa 0,0 mm 1,6 km/h (1 Bft) O 90 0 min 0 UV-I 0 W/m 4,8 km/h (1 Bft)
20.06.2007 04:50 17,7 C 77 % 1010,8 hPa 0,0 mm 0,0 km/h (0 Bft) O 90 0 min 0 UV-I 0 W/m 3,2 km/h (1 Bft)
20.06.2007 05:00 17,7 C 78 % 1010,8 hPa 0,0 mm 0,0 km/h (0 Bft) O 90 0 min 0 UV-I 0 W/m 3,2 km/h (1 Bft)
20.06.2007 05:10 17,4 C 78 % 1010,8 hPa 0,0 mm 1,6 km/h (1 Bft) O-SO 112 0 min 0 UV-I 0 W/m 4,8 km/h (1 Bft)
20.06.2007 05:20 17,5 C 78 % 1010,8 hPa 0,0 mm 1,6 km/h (1 Bft) O-SO 112 0 min 0 UV-I 5 W/m 6,4 km/h (2 Bft)
20.06.2007 05:30 17,7 C 77 % 1010,7 hPa 0,0 mm 1,6 km/h (1 Bft) O-SO 112 0 min 0 UV-I 14 W/m 8,0 km/h (2 Bft)
20.06.2007 05:40 18,1 C 77 % 1010,7 hPa 0,0 mm 3,2 km/h (1 Bft) O-SO 112 0 min 0 UV-I 25 W/m 6,4 km/h (2 Bft)
20.06.2007 05:50 18,3 C 76 % 1010,7 hPa 0,0 mm 4,8 km/h (1 Bft) O-SO 112 0 min 0 UV-I 42 W/m 9,7 km/h (2 Bft)
20.06.2007 06:00 18,4 C 76 % 1010,5 hPa 0,0 mm 3,2 km/h (1 Bft) O 90 10 min 0 UV-I 58 W/m 8,0 km/h (2 Bft)
20.06.2007 06:10 18,7 C 75 % 1010,6 hPa 0,0 mm 1,6 km/h (1 Bft) O-SO 112 0 min 0 UV-I 62 W/m 4,8 km/h (1 Bft)
20.06.2007 06:20 18,8 C 75 % 1010,3 hPa 0,0 mm 1,6 km/h (1 Bft) O 90 10 min 0 UV-I 81 W/m 3,2 km/h (1 Bft)
20.06.2007 06:30 19,1 C 76 % 1010,1 hPa 0,0 mm 1,6 km/h (1 Bft) O 90 10 min 0 UV-I 128 W/m 6,4 km/h (2 Bft)
20.06.2007 06:40 19,2 C 76 % 1010,1 hPa 0,0 mm 3,2 km/h (1 Bft) O 90 10 min 0 UV-I 137 W/m 4,8 km/h (1 Bft)
20.06.2007 06:50 19,6 C 74 % 1010,1 hPa 0,0 mm 3,2 km/h (1 Bft) O-SO 112 10 min 0 UV-I 127 W/m 8,0 km/h (2 Bft)
20.06.2007 07:00 20,1 C 72 % 1010,1 hPa 0,0 mm 3,2 km/h (1 Bft) O 90 0 min 0 UV-I 121 W/m 8,0 km/h (2 Bft)
20.06.2007 07:10 20,4 C 71 % 1010,0 hPa 0,0 mm 3,2 km/h (1 Bft) O 90 0 min 0 UV-I 120 W/m 14,5 km/h (3 Bft)
20.06.2007 07:20 20,5 C 70 % 1010,0 hPa 0,0 mm 4,8 km/h (1 Bft) O 90 0 min 0 UV-I 102 W/m 14,5 km/h (3 Bft)
20.06.2007 07:30 20,6 C 70 % 1009,8 hPa 0,0 mm 3,2 km/h (1 Bft) O-NO 67 0 min 0 UV-I 100 W/m 9,7 km/h (2 Bft)
20.06.2007 07:40 20,7 C 69 % 1010,1 hPa 0,0 mm 3,2 km/h (1 Bft) O 90 0 min 0 UV-I 74 W/m 8,0 km/h (2 Bft)
20.06.2007 07:50 20,6 C 72 % 1010,2 hPa 0,0 mm 6,4 km/h (2 Bft) O 90 0 min 0 UV-I 76 W/m 17,7 km/h (3 Bft)
20.06.2007 08:00 20,4 C 75 % 1010,1 hPa 0,0 mm 4,8 km/h (1 Bft) W 270 0 min 1 UV-I 141 W/m 11,3 km/h (2 Bft)
20.06.2007 08:10 20,5 C 74 % 1010,4 hPa 0,0 mm 3,2 km/h (1 Bft) W 270 0 min 1 UV-I 179 W/m 11,3 km/h (2 Bft)
20.06.2007 08:20 20,7 C 73 % 1010,4 hPa 0,0 mm 1,6 km/h (1 Bft) W 270 0 min 1 UV-I 181 W/m 6,4 km/h (2 Bft)
20.06.2007 08:30 20,9 C 74 % 1010,4 hPa 0,0 mm 0,0 km/h (0 Bft) W-NW 292 0 min 1 UV-I 200 W/m 3,2 km/h (1 Bft)
20.06.2007 08:40 21,4 C 72 % 1010,3 hPa 0,0 mm 3,2 km/h (1 Bft) O 90 0 min 1 UV-I 260 W/m 6,4 km/h (2 Bft)
20.06.2007 08:50 21,8 C 69 % 1010,2 hPa 0,0 mm 4,8 km/h (1 Bft) O-SO 112 0 min 1 UV-I 272 W/m 9,7 km/h (2 Bft)
20.06.2007 09:00 21,8 C 69 % 1010,2 hPa 0,0 mm 4,8 km/h (1 Bft) O-SO 112 0 min 1 UV-I 269 W/m 8,0 km/h (2 Bft)
20.06.2007 09:10 22,0 C 70 % 1010,0 hPa 0,0 mm 3,2 km/h (1 Bft) O-SO 112 0 min 1 UV-I 264 W/m 8,0 km/h (2 Bft)
20.06.2007 09:20 22,2 C 69 % 1010,1 hPa 0,0 mm 3,2 km/h (1 Bft) O-SO 112 0 min 1 UV-I 255 W/m 8,0 km/h (2 Bft)
20.06.2007 09:30 22,1 C 67 % 1010,0 hPa 0,0 mm 4,8 km/h (1 Bft) O-SO 112 0 min 1 UV-I 158 W/m 9,7 km/h (2 Bft)
20.06.2007 09:40 21,7 C 68 % 1010,2 hPa 0,0 mm 3,2 km/h (1 Bft) O 90 0 min 1 UV-I 192 W/m 9,7 km/h (2 Bft)
20.06.2007 09:50 21,9 C 68 % 1010,0 hPa 0,0 mm 4,8 km/h (1 Bft) O-SO 112 0 min 2 UV-I 251 W/m 9,7 km/h (2 Bft)
20.06.2007 10:00 22,1 C 69 % 1010,1 hPa 0,0 mm 4,8 km/h (1 Bft) SO 135 10 min 2 UV-I 380 W/m 11,3 km/h (2 Bft)
20.06.2007 10:10 22,3 C 69 % 1009,9 hPa 0,0 mm 4,8 km/h (1 Bft) O-SO 112 10 min 2 UV-I 425 W/m 11,3 km/h (2 Bft)
20.06.2007 10:20 22,2 C 68 % 1009,8 hPa 0,0 mm 4,8 km/h (1 Bft) O-SO 112 0 min 2 UV-I 225 W/m 9,7 km/h (2 Bft)
20.06.2007 10:30 22,4 C 69 % 1010,0 hPa 0,0 mm 3,2 km/h (1 Bft) O-SO 112 0 min 3 UV-I 378 W/m 9,7 km/h (2 Bft)
20.06.2007 10:40 23,2 C 66 % 1010,0 hPa 0,0 mm 1,6 km/h (1 Bft) O-SO 112 10 min 4 UV-I 687 W/m 6,4 km/h (2 Bft)
20.06.2007 10:50 24,5 C 59 % 1009,9 hPa 0,0 mm 4,8 km/h (1 Bft) SO 135 10 min 5 UV-I 786 W/m 11,3 km/h (2 Bft)
20.06.2007 11:00 24,8 C 63 % 1009,9 hPa 0,0 mm 4,8 km/h (1 Bft) O-SO 112 0 min 3 UV-I 415 W/m 9,7 km/h (2 Bft)
20.06.2007 11:10 24,7 C 61 % 1010,0 hPa 0,0 mm 1,6 km/h (1 Bft) O-SO 112 10 min 6 UV-I 1014 W/m 6,4 km/h (2 Bft)
20.06.2007 11:20 25,0 C 62 % 1010,2 hPa 0,0 mm 3,2 km/h (1 Bft) S-SO 157 10 min 5 UV-I 446 W/m 8,0 km/h (2 Bft)
20.06.2007 11:30 25,2 C 62 % 1010,4 hPa 0,0 mm 3,2 km/h (1 Bft) S-SW 202 10 min 6 UV-I 860 W/m 8,0 km/h (2 Bft)
20.06.2007 11:40 25,4 C 60 % 1010,3 hPa 0,0 mm 3,2 km/h (1 Bft) W-SW 247 10 min 6 UV-I 870 W/m 9,7 km/h (2 Bft)
20.06.2007 11:50 25,6 C 62 % 1010,3 hPa 0,0 mm 3,2 km/h (1 Bft) W-NW 292 10 min 6 UV-I 979 W/m 9,7 km/h (2 Bft)
20.06.2007 12:00 26,1 C 56 % 1010,4 hPa 0,0 mm 6,4 km/h (2 Bft) W 270 10 min 7 UV-I 928 W/m 16,1 km/h (3 Bft)
20.06.2007 12:10 26,1 C 59 % 1010,3 hPa 0,0 mm 6,4 km/h (2 Bft) W 270 10 min 7 UV-I 877 W/m 19,3 km/h (3 Bft)
20.06.2007 12:20 26,4 C 55 % 1010,5 hPa 0,0 mm 4,8 km/h (1 Bft) W-NW 292 10 min 7 UV-I 858 W/m 16,1 km/h (3 Bft)
20.06.2007 12:30 26,3 C 57 % 1010,6 hPa 0,0 mm 9,7 km/h (2 Bft) W 270 10 min 7 UV-I 861 W/m 20,9 km/h (4 Bft)
20.06.2007 12:40 26,1 C 56 % 1010,7 hPa 0,0 mm 11,3 km/h (2 Bft) W 270 10 min 7 UV-I 870 W/m 19,3 km/h (3 Bft)
20.06.2007 12:50 26,4 C 55 % 1010,9 hPa 0,0 mm 6,4 km/h (2 Bft) W 270 10 min 7 UV-I 877 W/m 16,1 km/h (3 Bft)
20.06.2007 13:00 26,6 C 55 % 1011,0 hPa 0,0 mm 8,0 km/h (2 Bft) W 270 10 min 7 UV-I 919 W/m 20,9 km/h (4 Bft)
20.06.2007 13:10 26,9 C 54 % 1011,0 hPa 0,0 mm 8,0 km/h (2 Bft) W 270 10 min 7 UV-I 1046 W/m 25,7 km/h (4 Bft)
20.06.2007 13:20 27,1 C 54 % 1010,9 hPa 0,0 mm 8,0 km/h (2 Bft) W 270 10 min 7 UV-I 1074 W/m 17,7 km/h (3 Bft)
20.06.2007 13:30 26,7 C 55 % 1011,1 hPa 0,0 mm 9,7 km/h (2 Bft) W 270 10 min 5 UV-I 515 W/m 19,3 km/h (3 Bft)
20.06.2007 13:40 26,3 C 57 % 1011,2 hPa 0,0 mm 8,0 km/h (2 Bft) W 270 10 min 5 UV-I 557 W/m 20,9 km/h (4 Bft)
20.06.2007 13:50 26,6 C 57 % 1011,2 hPa 0,0 mm 6,4 km/h (2 Bft) W 270 0 min 6 UV-I 448 W/m 19,3 km/h (3 Bft)
20.06.2007 14:00 26,3 C 58 % 1011,4 hPa 0,0 mm 6,4 km/h (2 Bft) W-SW 247 10 min 4 UV-I 496 W/m 16,1 km/h (3 Bft)
20.06.2007 14:10 25,9 C 60 % 1011,5 hPa 0,0 mm 9,7 km/h (2 Bft) W 270 0 min 3 UV-I 371 W/m 24,1 km/h (4 Bft)
20.06.2007 14:20 25,9 C 59 % 1011,5 hPa 0,0 mm 6,4 km/h (2 Bft) W 270 10 min 6 UV-I 547 W/m 16,1 km/h (3 Bft)
20.06.2007 14:30 26,1 C 59 % 1011,5 hPa 0,0 mm 6,4 km/h (2 Bft) W 270 10 min 4 UV-I 473 W/m 16,1 km/h (3 Bft)
20.06.2007 14:40 25,8 C 63 % 1011,6 hPa 0,0 mm 9,7 km/h (2 Bft) W 270 10 min 5 UV-I 552 W/m 25,7 km/h (4 Bft)
20.06.2007 14:50 25,9 C 63 % 1011,7 hPa 0,0 mm 11,3 km/h (2 Bft) W 270 10 min 6 UV-I 1125 W/m 29,0 km/h (5 Bft)
20.06.2007 15:00 26,3 C 61 % 1011,9 hPa 0,0 mm 9,7 km/h (2 Bft) W 270 10 min 5 UV-I 629 W/m 22,5 km/h (4 Bft)
20.06.2007 15:10 25,8 C 63 % 1012,0 hPa 0,0 mm 6,4 km/h (2 Bft) W 270 10 min 4 UV-I 761 W/m 17,7 km/h (3 Bft)
20.06.2007 15:20 25,2 C 63 % 1012,2 hPa 0,0 mm 11,3 km/h (2 Bft) W 270 0 min 3 UV-I 387 W/m 27,4 km/h (4 Bft)
20.06.2007 15:30 24,7 C 62 % 1012,3 hPa 0,0 mm 9,7 km/h (2 Bft) W 270 10 min 5 UV-I 577 W/m 22,5 km/h (4 Bft)
20.06.2007 15:40 25,3 C 62 % 1012,3 hPa 0,0 mm 8,0 km/h (2 Bft) W 270 10 min 5 UV-I 670 W/m 20,9 km/h (4 Bft)
20.06.2007 15:50 25,6 C 58 % 1012,2 hPa 0,0 mm 8,0 km/h (2 Bft) W 270 10 min 5 UV-I 911 W/m 20,9 km/h (4 Bft)
20.06.2007 16:00 25,8 C 59 % 1012,3 hPa 0,0 mm 8,0 km/h (2 Bft) W 270 10 min 5 UV-I 793 W/m 20,9 km/h (4 Bft)
20.06.2007 16:10 25,3 C 61 % 1012,4 hPa 0,0 mm 8,0 km/h (2 Bft) W 270 0 min 2 UV-I 294 W/m 19,3 km/h (3 Bft)
20.06.2007 16:20 25,0 C 61 % 1012,4 hPa 0,0 mm 8,0 km/h (2 Bft) W-SW 247 10 min 3 UV-I 404 W/m 20,9 km/h (4 Bft)
20.06.2007 16:30 24,9 C 60 % 1012,3 hPa 0,0 mm 9,7 km/h (2 Bft) W-SW 247 10 min 3 UV-I 489 W/m 19,3 km/h (3 Bft)
20.06.2007 16:40 25,3 C 60 % 1012,3 hPa 0,0 mm 8,0 km/h (2 Bft) W 270 10 min 4 UV-I 701 W/m 17,7 km/h (3 Bft)
20.06.2007 16:50 25,7 C 60 % 1012,2 hPa 0,0 mm 6,4 km/h (2 Bft) W 270 10 min 3 UV-I 694 W/m 14,5 km/h (3 Bft)
20.06.2007 17:00 25,7 C 60 % 1012,2 hPa 0,0 mm 9,7 km/h (2 Bft) W 270 10 min 3 UV-I 689 W/m 22,5 km/h (4 Bft)
20.06.2007 17:10 25,8 C 60 % 1012,2 hPa 0,0 mm 8,0 km/h (2 Bft) W 270 10 min 3 UV-I 643 W/m 19,3 km/h (3 Bft)
20.06.2007 17:20 25,9 C 58 % 1012,1 hPa 0,0 mm 6,4 km/h (2 Bft) W 270 10 min 3 UV-I 589 W/m 16,1 km/h (3 Bft)
20.06.2007 17:30 25,6 C 61 % 1012,1 hPa 0,0 mm 6,4 km/h (2 Bft) W-NW 292 10 min 2 UV-I 555 W/m 19,3 km/h (3 Bft)
20.06.2007 17:40 25,4 C 60 % 1012,2 hPa 0,0 mm 6,4 km/h (2 Bft) NW 315 10 min 2 UV-I 547 W/m 16,1 km/h (3 Bft)
20.06.2007 17:50 25,5 C 60 % 1012,2 hPa 0,0 mm 6,4 km/h (2 Bft) W-NW 292 10 min 2 UV-I 503 W/m 17,7 km/h (3 Bft)
20.06.2007 18:00 25,6 C 59 % 1012,3 hPa 0,0 mm 6,4 km/h (2 Bft) W-SW 247 10 min 2 UV-I 519 W/m 17,7 km/h (3 Bft)
20.06.2007 18:10 25,4 C 59 % 1012,2 hPa 0,0 mm 6,4 km/h (2 Bft) W 270 10 min 2 UV-I 478 W/m 17,7 km/h (3 Bft)
20.06.2007 18:20 25,4 C 59 % 1012,2 hPa 0,0 mm 4,8 km/h (1 Bft) W 270 10 min 1 UV-I 489 W/m 14,5 km/h (3 Bft)
20.06.2007 18:30 25,4 C 60 % 1012,2 hPa 0,0 mm 4,8 km/h (1 Bft) W-NW 292 10 min 1 UV-I 478 W/m 16,1 km/h (3 Bft)
20.06.2007 18:40 25,5 C 57 % 1012,3 hPa 0,0 mm 6,4 km/h (2 Bft) W 270 10 min 1 UV-I 483 W/m 19,3 km/h (3 Bft)
20.06.2007 18:50 25,0 C 59 % 1012,4 hPa 0,0 mm 4,8 km/h (1 Bft) W 270 0 min 1 UV-I 153 W/m 14,5 km/h (3 Bft)
20.06.2007 19:00 24,8 C 59 % 1012,4 hPa 0,0 mm 4,8 km/h (1 Bft) W-NW 292 10 min 1 UV-I 387 W/m 11,3 km/h (2 Bft)
20.06.2007 19:10 25,1 C 59 % 1012,3 hPa 0,0 mm 4,8 km/h (1 Bft) W 270 10 min 1 UV-I 373 W/m 11,3 km/h (2 Bft)
20.06.2007 19:20 24,7 C 59 % 1012,3 hPa 0,0 mm 4,8 km/h (1 Bft) W 270 10 min 1 UV-I 265 W/m 9,7 km/h (2 Bft)
20.06.2007 19:30 24,7 C 58 % 1012,3 hPa 0,0 mm 4,8 km/h (1 Bft) W 270 10 min 1 UV-I 255 W/m 12,9 km/h (3 Bft)
20.06.2007 19:40 24,5 C 60 % 1012,3 hPa 0,0 mm 3,2 km/h (1 Bft) W 270 10 min 1 UV-I 214 W/m 9,7 km/h (2 Bft)
20.06.2007 19:50 24,2 C 60 % 1012,4 hPa 0,0 mm 4,8 km/h (1 Bft) NW 315 10 min 1 UV-I 179 W/m 14,5 km/h (3 Bft)
20.06.2007 20:00 24,1 C 61 % 1012,4 hPa 0,0 mm 3,2 km/h (1 Bft) W-NW 292 10 min 0 UV-I 155 W/m 11,3 km/h (2 Bft)
20.06.2007 20:10 23,9 C 62 % 1012,4 hPa 0,0 mm 3,2 km/h (1 Bft) W-NW 292 10 min 0 UV-I 137 W/m 11,3 km/h (2 Bft)
20.06.2007 20:20 23,6 C 63 % 1012,5 hPa 0,0 mm 4,8 km/h (1 Bft) W-NW 292 10 min 0 UV-I 118 W/m 11,3 km/h (2 Bft)
20.06.2007 20:30 23,3 C 64 % 1012,6 hPa 0,0 mm 3,2 km/h (1 Bft) NW 315 0 min 0 UV-I 65 W/m 8,0 km/h (2 Bft)
20.06.2007 20:40 23,1 C 64 % 1012,6 hPa 0,0 mm 1,6 km/h (1 Bft) W-NW 292 0 min 0 UV-I 54 W/m 6,4 km/h (2 Bft)
20.06.2007 20:50 22,8 C 65 % 1012,6 hPa 0,0 mm 3,2 km/h (1 Bft) W-NW 292 0 min 0 UV-I 47 W/m 8,0 km/h (2 Bft)
20.06.2007 21:00 22,6 C 66 % 1012,7 hPa 0,0 mm 3,2 km/h (1 Bft) W-NW 292 0 min 0 UV-I 33 W/m 8,0 km/h (2 Bft)
20.06.2007 21:10 22,3 C 66 % 1012,7 hPa 0,0 mm 1,6 km/h (1 Bft) NW 315 0 min 0 UV-I 23 W/m 4,8 km/h (1 Bft)
20.06.2007 21:20 22,1 C 67 % 1012,7 hPa 0,0 mm 1,6 km/h (1 Bft) W 270 0 min 0 UV-I 16 W/m 6,4 km/h (2 Bft)
20.06.2007 21:30 21,9 C 68 % 1012,7 hPa 0,0 mm 1,6 km/h (1 Bft) W 270 10 min 0 UV-I 14 W/m 4,8 km/h (1 Bft)
20.06.2007 21:40 21,8 C 69 % 1013,0 hPa 0,0 mm 0,0 km/h (0 Bft) W 270 0 min 0 UV-I 11 W/m 3,2 km/h (1 Bft)
20.06.2007 21:50 21,6 C 69 % 1013,0 hPa 0,0 mm 1,6 km/h (1 Bft) W 270 0 min 0 UV-I 0 W/m 3,2 km/h (1 Bft)
20.06.2007 22:00 21,6 C 69 % 1013,1 hPa 0,0 mm 1,6 km/h (1 Bft) W-NW 292 0 min 0 UV-I 0 W/m 4,8 km/h (1 Bft)
20.06.2007 22:10 21,5 C 71 % 1013,1 hPa 0,0 mm 0,0 km/h (0 Bft) NW 315 0 min 0 UV-I 0 W/m 3,2 km/h (1 Bft)
20.06.2007 22:20 21,4 C 71 % 1013,3 hPa 0,0 mm 0,0 km/h (0 Bft) NW 315 0 min 0 UV-I 0 W/m 1,6 km/h (1 Bft)
20.06.2007 22:30 21,4 C 71 % 1013,3 hPa 0,0 mm 1,6 km/h (1 Bft) NW 315 0 min 0 UV-I 0 W/m 4,8 km/h (1 Bft)
20.06.2007 22:40 21,3 C 72 % 1013,3 hPa 0,0 mm 1,6 km/h (1 Bft) N-NW 337 0 min 0 UV-I 0 W/m 4,8 km/h (1 Bft)
20.06.2007 22:50 21,1 C 73 % 1013,4 hPa 0,0 mm 1,6 km/h (1 Bft) N-NW 337 0 min 0 UV-I 0 W/m 4,8 km/h (1 Bft)
20.06.2007 23:00 20,9 C 74 % 1013,3 hPa 0,0 mm 0,0 km/h (0 Bft) N-NW 337 0 min 0 UV-I 0 W/m 3,2 km/h (1 Bft)
20.06.2007 23:10 20,8 C 73 % 1013,2 hPa 0,0 mm 1,6 km/h (1 Bft) N-NO 22 0 min 0 UV-I 0 W/m 4,8 km/h (1 Bft)
20.06.2007 23:20 20,7 C 74 % 1013,3 hPa 0,0 mm 1,6 km/h (1 Bft) N-NO 22 0 min 0 UV-I 0 W/m 6,4 km/h (2 Bft)
20.06.2007 23:30 20,5 C 74 % 1013,2 hPa 0,0 mm 0,0 km/h (0 Bft) N-NO 22 0 min 0 UV-I 0 W/m 3,2 km/h (1 Bft)
20.06.2007 23:40 20,4 C 73 % 1013,2 hPa 0,0 mm 1,6 km/h (1 Bft) NO 45 0 min 0 UV-I 0 W/m 4,8 km/h (1 Bft)
20.06.2007 23:50 20,3 C 73 % 1013,2 hPa 0,0 mm 1,6 km/h (1 Bft) NO 45 0 min 0 UV-I 0 W/m 3,2 km/h (1 Bft)
_ Min-Zeit 05:10 13:10 07:30 - 00:00 - - - - - 04:20
Minimum _ 17,3 C 54 % 1009,8 hPa - 0,0 km/h (0 Bft) - - - - - 0,0 km/h (0 Bft)
_ Max-Zeit 13:20 04:30 22:50 00:00 12:40 - - 06:00 12:00 14:50 14:50
Maximum _ 27,3 C 78 % 1013,4 hPa 0,0 mm 11,3 km/h
W (2 Bft)
- - 10 min 7 UV-I 1125 W/m 29,0 km/h
N (5 Bft)
Durchschnitt _ 22,3 C 67 % 1011,3 hPa #0,0 mm 4,1 km/h (1 Bft) W - #10:10 h 3 UV-I 409 W/m 10,9 km/h (2 Bft)